Time;durP1;ratioP1;P1;durP2;ratioP2;P2;SDS_P1;SDS_P2;PMS_P1;PMS_P2;Temp;Humidity;BMP_temperature;BMP_pressure;BME280_temperature;BME280_humidity;BME280_pressure;Samples;Min_cycle;Max_cycle;Signal;HPM_P1;HPM_P2
2022/12/22 05:03:42;;;;;;;1.02;0.75;;;11.70;99.90;;;;;;6008878;23;20197;-72
2022/12/22 05:06:07;;;;;;;1.13;0.67;;;11.70;99.90;;;;;;4978650;28;20216;-70
2022/12/22 05:08:33;;;;;;;0.60;0.60;;;11.80;99.90;;;;;;4975441;28;20862;-72
2022/12/22 05:10:59;;;;;;;0.50;0.50;;;11.80;99.90;;;;;;4990428;28;20526;-72
2022/12/22 05:13:24;;;;;;;0.73;0.67;;;11.80;99.90;;;;;;4973654;28;20597;-73
2022/12/22 05:15:50;;;;;;;0.53;0.53;;;11.80;99.90;;;;;;4975540;28;20172;-71
2022/12/22 05:18:15;;;;;;;0.40;0.40;;;11.80;99.90;;;;;;4975406;28;20288;-71
2022/12/22 05:20:41;;;;;;;0.60;0.50;;;11.80;99.90;;;;;;4976692;28;20622;-72
2022/12/22 05:23:06;;;;;;;0.90;0.90;;;11.90;99.90;;;;;;4974856;28;20178;-70
2022/12/22 05:25:32;;;;;;;0.60;0.60;;;11.90;99.90;;;;;;4975404;28;20192;-71
2022/12/22 05:27:58;;;;;;;1.43;0.80;;;11.90;99.90;;;;;;4975525;28;20203;-71
2022/12/22 05:30:23;;;;;;;0.73;0.73;;;11.90;99.90;;;;;;4975293;28;20180;-70
2022/12/22 05:32:49;;;;;;;0.90;0.90;;;12.00;99.90;;;;;;4969122;28;20304;-72
2022/12/22 05:35:15;;;;;;;1.77;0.70;;;12.00;99.90;;;;;;4973693;28;20256;-73
2022/12/22 05:37:41;;;;;;;1.37;0.60;;;12.00;99.90;;;;;;4973988;28;20276;-72
2022/12/22 05:40:08;;;;;;;0.73;0.67;;;12.00;99.90;;;;;;4974829;28;20991;-71
2022/12/22 05:42:36;;;;;;;0.60;0.60;;;12.00;99.90;;;;;;4974406;28;20179;-70
2022/12/22 05:45:11;;;;;;;1.33;0.67;;;12.00;99.90;;;;;;4971168;28;20440;-71
2022/12/22 05:47:37;;;;;;;0.50;0.50;;;12.00;99.90;;;;;;4974236;28;20417;-71
2022/12/22 05:50:05;;;;;;;2.70;0.68;;;12.00;99.90;;;;;;4994185;28;20202;-72
2022/12/22 05:52:30;;;;;;;0.40;0.40;;;11.90;99.90;;;;;;4977131;28;20235;-72
2022/12/22 05:54:56;;;;;;;0.63;0.63;;;11.90;99.90;;;;;;4973395;28;20635;-73
2022/12/22 05:57:22;;;;;;;1.27;0.63;;;11.80;99.90;;;;;;4965337;28;20520;-72
2022/12/22 05:59:48;;;;;;;0.60;0.60;;;11.80;99.90;;;;;;4973419;28;20209;-71
2022/12/22 06:02:13;;;;;;;1.50;0.60;;;11.80;99.90;;;;;;4967059;28;20179;-73
2022/12/22 06:04:39;;;;;;;1.53;0.60;;;11.80;99.90;;;;;;4954855;28;20195;-72
2022/12/22 06:07:04;;;;;;;1.13;1.03;;;11.80;99.90;;;;;;4955239;28;20268;-72
2022/12/22 06:09:30;;;;;;;0.87;0.83;;;11.80;99.90;;;;;;4955337;28;20544;-71
2022/12/22 06:11:56;;;;;;;0.80;0.80;;;11.70;99.90;;;;;;4955603;28;20228;-68
2022/12/22 06:14:21;;;;;;;1.47;0.70;;;11.70;99.90;;;;;;4954861;28;20189;-70
2022/12/22 06:16:47;;;;;;;1.00;0.60;;;11.60;99.90;;;;;;4955091;28;20183;-70
2022/12/22 06:19:12;;;;;;;0.97;0.57;;;11.60;99.90;;;;;;4955140;28;20544;-72
2022/12/22 06:21:38;;;;;;;1.03;0.93;;;11.50;99.90;;;;;;4953953;28;20169;-71
2022/12/22 06:24:04;;;;;;;1.77;0.70;;;11.50;99.90;;;;;;4954730;28;20548;-71
2022/12/22 06:26:30;;;;;;;3.22;0.75;;;11.50;99.90;;;;;;4959120;28;20258;-71
2022/12/22 06:28:56;;;;;;;0.95;0.80;;;11.50;99.90;;;;;;4959424;28;20184;-71
2022/12/22 06:31:22;;;;;;;1.37;0.80;;;11.50;99.90;;;;;;4975826;28;20207;-71
2022/12/22 06:33:48;;;;;;;1.52;1.00;;;11.50;99.90;;;;;;4977818;28;20195;-72
2022/12/22 06:36:13;;;;;;;1.27;0.50;;;11.40;99.90;;;;;;4978291;28;20807;-72
2022/12/22 06:38:39;;;;;;;2.57;0.90;;;11.40;99.90;;;;;;4975442;28;20697;-72
2022/12/22 06:41:04;;;;;;;1.27;1.17;;;11.40;99.90;;;;;;4957376;28;20264;-71
2022/12/22 06:43:30;;;;;;;0.70;0.70;;;11.40;99.90;;;;;;4957101;28;20536;-71
2022/12/22 06:45:55;;;;;;;3.17;1.30;;;11.40;99.90;;;;;;4958406;28;20177;-74
2022/12/22 06:48:21;;;;;;;2.13;2.00;;;11.50;99.90;;;;;;4958651;28;20257;-72
2022/12/22 06:50:47;;;;;;;2.10;0.90;;;11.60;99.90;;;;;;4957086;28;20181;-72
2022/12/22 06:53:13;;;;;;;6.33;1.17;;;11.60;99.90;;;;;;4956645;28;20413;-72
2022/12/22 06:55:38;;;;;;;5.23;0.90;;;11.60;99.90;;;;;;4958765;28;20314;-71
2022/12/22 06:58:05;;;;;;;1.37;1.27;;;11.70;99.90;;;;;;4957647;28;20185;-71
2022/12/22 07:00:31;;;;;;;1.30;1.20;;;11.80;99.90;;;;;;4957006;29;20632;-72
2022/12/22 07:02:56;;;;;;;3.25;0.70;;;11.80;99.90;;;;;;4958110;28;20406;-72
2022/12/22 07:05:22;;;;;;;0.87;0.80;;;11.80;99.90;;;;;;4958320;28;20619;-73
2022/12/22 07:07:48;;;;;;;0.50;0.50;;;11.80;99.90;;;;;;4958298;28;20185;-71
2022/12/22 07:10:14;;;;;;;2.10;0.73;;;11.90;99.90;;;;;;4958466;28;20180;-73
2022/12/22 07:12:40;;;;;;;3.17;1.13;;;11.90;99.90;;;;;;4958435;28;20462;-73
2022/12/22 07:15:07;;;;;;;1.23;1.13;;;11.90;99.90;;;;;;4956800;29;20486;-72
2022/12/22 07:17:33;;;;;;;1.83;1.00;;;11.80;99.90;;;;;;4957991;28;20437;-73
2022/12/22 07:19:58;;;;;;;2.00;1.03;;;11.90;99.90;;;;;;4958441;28;20806;-71
2022/12/22 07:22:24;;;;;;;1.50;1.33;;;11.90;99.90;;;;;;4956810;28;20170;-71
2022/12/22 07:24:50;;;;;;;2.20;1.10;;;11.80;99.90;;;;;;4957644;28;20194;-69
2022/12/22 07:27:15;;;;;;;2.80;1.40;;;11.90;99.90;;;;;;4956635;28;20179;-70
2022/12/22 07:29:41;;;;;;;1.00;1.00;;;11.80;99.90;;;;;;4958074;28;20636;-71
2022/12/22 07:32:07;;;;;;;1.27;0.87;;;11.80;99.90;;;;;;4958154;28;20180;-71
2022/12/22 07:34:33;;;;;;;4.63;0.70;;;11.80;99.90;;;;;;4957361;28;20213;-70
2022/12/22 07:36:58;;;;;;;0.90;0.90;;;11.80;99.90;;;;;;4962421;28;20425;-70
2022/12/22 07:39:24;;;;;;;1.67;1.10;;;11.70;99.90;;;;;;4963916;28;20225;-71
2022/12/22 07:44:34;;;;;;;2.78;1.10;;;11.80;99.90;;;;;;4957385;29;20947;-73
2022/12/22 07:47:00;;;;;;;1.70;1.60;;;11.90;99.90;;;;;;4956373;28;20190;-71
2022/12/22 07:52:09;;;;;;;1.50;1.05;;;12.00;99.90;;;;;;4957969;29;20769;-72
2022/12/22 07:54:36;;;;;;;2.83;1.80;;;12.00;99.90;;;;;;4957074;28;20213;-69
2022/12/22 07:57:01;;;;;;;1.70;1.17;;;12.00;99.90;;;;;;4957535;28;20261;-70
2022/12/22 07:59:27;;;;;;;1.10;1.00;;;12.10;99.90;;;;;;4957337;28;20292;-74
2022/12/22 08:01:52;;;;;;;6.37;1.00;;;12.10;99.90;;;;;;4957526;28;20178;-73
2022/12/22 08:04:18;;;;;;;0.77;0.77;;;12.00;99.90;;;;;;4957017;28;20565;-71
2022/12/22 08:06:44;;;;;;;3.53;1.50;;;12.10;99.90;;;;;;4957422;28;20193;-71
2022/12/22 08:09:14;;;;;;;17.63;1.67;;;12.00;99.90;;;;;;4957446;28;20411;-68
2022/12/22 08:11:40;;;;;;;2.13;0.90;;;12.00;99.90;;;;;;4957315;28;20198;-70
2022/12/22 08:14:05;;;;;;;0.60;0.57;;;12.00;99.90;;;;;;4957114;28;20429;-71
2022/12/22 08:16:31;;;;;;;2.57;1.10;;;11.90;99.90;;;;;;4957395;28;20177;-71
2022/12/22 08:18:57;;;;;;;4.80;0.90;;;11.90;99.90;;;;;;4955874;28;20686;-72
2022/12/22 08:21:23;;;;;;;1.00;0.63;;;12.00;99.90;;;;;;4957149;28;20267;-72
2022/12/22 08:23:49;;;;;;;0.80;0.80;;;12.10;99.90;;;;;;4964489;28;20589;-72
2022/12/22 08:26:14;;;;;;;0.97;0.70;;;12.10;99.90;;;;;;4976558;28;20421;-72
2022/12/22 08:28:51;;;;;;;1.43;0.93;;;12.20;99.90;;;;;;4976248;28;20197;-71
2022/12/22 08:31:17;;;;;;;1.03;0.60;;;12.30;99.90;;;;;;4973836;28;20186;-72
2022/12/22 08:33:43;;;;;;;1.70;0.50;;;12.40;99.90;;;;;;4956189;28;20438;-72
2022/12/22 08:36:10;;;;;;;1.27;0.90;;;12.80;99.90;;;;;;4956766;28;20902;-72
2022/12/22 08:38:39;;;;;;;2.10;1.90;;;13.00;99.90;;;;;;4972891;28;20545;-71
2022/12/22 08:41:06;;;;;;;2.73;1.70;;;13.10;99.90;;;;;;4974475;28;20798;-71
2022/12/22 08:43:32;;;;;;;3.43;1.07;;;13.20;99.90;;;;;;4975281;28;20406;-72
2022/12/22 08:45:58;;;;;;;0.90;0.90;;;13.20;99.90;;;;;;4975989;28;20403;-71
2022/12/22 08:48:23;;;;;;;1.87;0.90;;;13.10;99.90;;;;;;4975437;28;20435;-71
2022/12/22 08:50:49;;;;;;;2.70;0.90;;;13.00;99.90;;;;;;4974533;28;20233;-72
2022/12/22 08:53:15;;;;;;;1.63;0.87;;;13.00;99.90;;;;;;4974990;28;20202;-72
2022/12/22 08:55:40;;;;;;;3.37;1.00;;;12.90;99.90;;;;;;4975686;28;20195;-71
2022/12/22 08:58:06;;;;;;;0.73;0.70;;;12.80;99.90;;;;;;4975550;28;20916;-71
2022/12/22 09:00:32;;;;;;;2.73;0.87;;;12.80;99.90;;;;;;4976304;28;20263;-72
2022/12/22 09:02:57;;;;;;;0.83;0.83;;;12.70;99.90;;;;;;4975076;28;20176;-71
2022/12/22 09:05:23;;;;;;;4.00;1.73;;;12.70;99.90;;;;;;4975228;28;20502;-70
2022/12/22 09:07:48;;;;;;;2.70;1.00;;;12.70;99.90;;;;;;4976063;28;20191;-70
2022/12/22 09:10:15;;;;;;;4.30;1.37;;;12.70;99.90;;;;;;4974836;28;20294;-72
2022/12/22 09:12:40;;;;;;;7.37;1.20;;;12.70;99.90;;;;;;4961255;28;20197;-73
2022/12/22 09:15:08;;;;;;;2.17;0.90;;;12.80;99.90;;;;;;4956033;28;20445;-72
2022/12/22 09:17:35;;;;;;;2.63;1.20;;;13.00;99.90;;;;;;4987384;28;20192;-72
2022/12/22 09:20:01;;;;;;;1.97;1.07;;;13.50;99.90;;;;;;4957478;28;20540;-72
2022/12/22 09:22:27;;;;;;;3.60;1.47;;;14.10;99.90;;;;;;4974067;28;20413;-73
2022/12/22 09:24:53;;;;;;;0.60;0.60;;;14.70;99.90;;;;;;4973539;28;20445;-73
2022/12/22 09:27:18;;;;;;;1.00;0.87;;;15.20;99.90;;;;;;4975550;28;20392;-73
2022/12/22 09:29:44;;;;;;;0.73;0.73;;;15.30;99.90;;;;;;4965786;28;20529;-73
2022/12/22 09:32:09;;;;;;;2.00;0.90;;;15.00;99.90;;;;;;4957710;28;20271;-72
2022/12/22 09:34:35;;;;;;;4.30;1.00;;;14.50;99.90;;;;;;4973963;28;20592;-72
2022/12/22 09:37:01;;;;;;;3.43;0.87;;;13.90;99.90;;;;;;4960219;28;20212;-73
2022/12/22 09:39:27;;;;;;;2.80;1.20;;;13.40;99.90;;;;;;4959381;28;20291;-72
2022/12/22 09:41:54;;;;;;;2.57;0.70;;;13.00;99.90;;;;;;4958080;28;20180;-73
2022/12/22 09:44:25;;;;;;;1.80;0.70;;;12.70;99.90;;;;;;4957482;28;20805;-70
2022/12/22 09:46:56;;;;;;;5.50;1.07;;;12.50;99.90;;;;;;4957836;28;20448;-74
2022/12/22 09:49:22;;;;;;;2.63;1.90;;;12.30;99.90;;;;;;4955986;28;20469;-71
2022/12/22 09:52:00;;;;;;;1.50;0.93;;;12.10;99.90;;;;;;4956270;28;20802;-72
2022/12/22 09:54:27;;;;;;;7.07;0.90;;;12.10;99.90;;;;;;4955064;28;20268;-73
2022/12/22 09:56:52;;;;;;;1.73;0.97;;;12.00;99.90;;;;;;4955658;28;20530;-71
2022/12/22 09:59:20;;;;;;;9.80;1.20;;;11.90;99.90;;;;;;4986354;28;20997;-73
2022/12/22 10:02:03;;;;;;;2.47;0.80;;;11.80;99.90;;;;;;4955929;28;20210;-73
2022/12/22 10:04:34;;;;;;;2.57;0.67;;;11.70;99.90;;;;;;4956749;28;20489;-72
2022/12/22 10:07:21;;;;;;;0.83;0.67;;;11.60;99.90;;;;;;4955817;28;20439;-71
2022/12/22 10:09:48;;;;;;;1.47;1.37;;;11.50;99.90;;;;;;4956701;28;20520;-73
2022/12/22 10:12:18;;;;;;;6.70;1.50;;;11.50;99.90;;;;;;4957138;28;20494;-70
2022/12/22 10:14:46;;;;;;;0.50;0.50;;;11.50;99.90;;;;;;4971874;28;20465;-71
2022/12/22 10:17:30;;;;;;;2.00;0.60;;;11.50;99.90;;;;;;4975032;28;20411;-73
2022/12/22 10:20:21;;;;;;;0.97;0.80;;;11.50;99.90;;;;;;4972160;28;20470;-73
2022/12/22 10:23:01;;;;;;;1.30;1.20;;;11.50;99.90;;;;;;4969686;28;20505;-72
2022/12/22 10:25:36;;;;;;;1.20;1.10;;;11.60;99.90;;;;;;4966590;28;20452;-72
2022/12/22 10:28:16;;;;;;;3.30;1.13;;;11.60;99.90;;;;;;4974790;28;20394;-72
2022/12/22 10:30:42;;;;;;;3.90;1.57;;;11.70;99.90;;;;;;4974630;28;20508;-74
2022/12/22 10:33:17;;;;;;;3.77;1.50;;;11.70;99.90;;;;;;4973025;28;20421;-73
2022/12/22 10:35:50;;;;;;;1.80;1.20;;;11.80;99.90;;;;;;4969562;28;20517;-73
2022/12/22 10:38:24;;;;;;;1.40;1.30;;;11.80;99.90;;;;;;4959213;28;20514;-73
2022/12/22 10:40:56;;;;;;;4.30;1.90;;;11.90;99.90;;;;;;4962391;28;20762;-73
2022/12/22 10:43:28;;;;;;;1.30;1.00;;;11.90;99.90;;;;;;4961226;28;20422;-74
2022/12/22 10:45:55;;;;;;;4.73;1.20;;;11.90;99.90;;;;;;4973950;28;20417;-71
2022/12/22 10:48:32;;;;;;;1.80;0.83;;;11.90;99.90;;;;;;4962492;28;20426;-72
2022/12/22 10:50:59;;;;;;;1.53;0.90;;;11.80;99.90;;;;;;4967439;28;20426;-73
2022/12/22 10:53:45;;;;;;;0.70;0.70;;;11.90;99.90;;;;;;4960512;28;20974;-72
2022/12/22 10:56:24;;;;;;;2.00;0.85;;;11.90;99.90;;;;;;4974523;28;20413;-72
2022/12/22 10:58:53;;;;;;;0.77;0.70;;;11.90;99.90;;;;;;4973136;28;20222;-70
2022/12/22 11:01:24;;;;;;;3.23;1.60;;;12.00;99.90;;;;;;4974105;28;20402;-74
2022/12/22 11:03:49;;;;;;;3.60;1.53;;;12.00;99.90;;;;;;4967643;28;20448;-73
2022/12/22 11:06:17;;;;;;;2.60;1.27;;;11.90;99.90;;;;;;4955099;28;20442;-69
2022/12/22 11:08:43;;;;;;;1.13;0.87;;;11.90;99.90;;;;;;4954958;28;20179;-71
2022/12/22 11:11:17;;;;;;;1.20;0.70;;;11.90;99.90;;;;;;4958136;28;20403;-74
2022/12/22 11:14:05;;;;;;;3.33;0.70;;;11.90;99.90;;;;;;4975241;28;20197;-73
2022/12/22 11:16:59;;;;;;;0.73;0.73;;;12.00;99.90;;;;;;4963866;28;20488;-73
2022/12/22 11:19:46;;;;;;;1.13;1.03;;;12.00;99.90;;;;;;4965079;28;20485;-72
2022/12/22 11:22:36;;;;;;;3.27;1.40;;;12.00;99.90;;;;;;4958121;28;20501;-74
2022/12/22 11:25:32;;;;;;;3.20;1.47;;;12.00;99.90;;;;;;4973039;28;20528;-75
2022/12/22 11:28:08;;;;;;;2.07;1.70;;;12.10;99.90;;;;;;4969217;28;20958;-75
2022/12/22 11:31:05;;;;;;;2.30;1.67;;;12.10;99.90;;;;;;4970341;28;20427;-73
2022/12/22 11:33:58;;;;;;;0.87;0.80;;;12.20;99.90;;;;;;4973933;28;20480;-73
2022/12/22 11:36:44;;;;;;;1.97;1.07;;;12.20;99.90;;;;;;4977497;28;20398;-72
2022/12/22 11:39:23;;;;;;;1.90;0.90;;;12.30;99.90;;;;;;4975644;28;20462;-72
2022/12/22 11:42:01;;;;;;;1.10;0.60;;;12.30;99.90;;;;;;4970697;28;20423;-74
2022/12/22 11:44:29;;;;;;;2.73;0.67;;;12.30;99.90;;;;;;4959708;28;20486;-72
2022/12/22 11:47:32;;;;;;;0.73;0.73;;;12.40;99.90;;;;;;4960553;28;20791;-73
2022/12/22 11:50:31;;;;;;;5.83;0.80;;;12.40;99.90;;;;;;4963379;28;20805;-72
2022/12/22 11:53:06;;;;;;;1.47;0.70;;;12.40;99.90;;;;;;4963920;28;20523;-75
2022/12/22 11:55:35;;;;;;;1.00;1.00;;;12.40;99.90;;;;;;4965692;28;20937;-74
2022/12/22 11:58:13;;;;;;;2.33;1.10;;;12.40;99.90;;;;;;4965577;28;20501;-72
2022/12/22 12:00:51;;;;;;;0.70;0.70;;;12.40;99.90;;;;;;4962389;28;20786;-73
2022/12/22 12:03:56;;;;;;;1.60;0.70;;;12.50;99.90;;;;;;4967204;28;20427;-75
2022/12/22 12:06:37;;;;;;;0.90;0.87;;;12.50;99.90;;;;;;4958353;28;20437;-74
2022/12/22 12:09:27;;;;;;;1.50;0.80;;;12.50;99.90;;;;;;4957313;28;20410;-75
2022/12/22 12:12:05;;;;;;;2.53;0.60;;;12.60;99.90;;;;;;4957054;28;20434;-73
2022/12/22 12:15:08;;;;;;;0.70;0.60;;;12.60;99.90;;;;;;4964579;28;20809;-74
2022/12/22 12:17:48;;;;;;;1.87;1.73;;;12.70;99.90;;;;;;4965476;28;22020;-75
2022/12/22 12:20:37;;;;;;;1.13;0.97;;;12.70;99.90;;;;;;4956978;28;20470;-70
2022/12/22 12:23:11;;;;;;;1.33;0.90;;;12.80;99.90;;;;;;4968293;28;20431;-70
2022/12/22 12:25:47;;;;;;;2.60;0.90;;;12.80;99.90;;;;;;4976092;28;20493;-68
2022/12/22 12:28:22;;;;;;;1.13;1.00;;;12.90;99.90;;;;;;4974420;28;20430;-71
2022/12/22 12:30:51;;;;;;;1.20;1.10;;;12.90;99.90;;;;;;4973021;28;20426;-71
2022/12/22 12:33:30;;;;;;;2.87;1.10;;;13.00;99.90;;;;;;4969557;28;20431;-70
2022/12/22 12:36:13;;;;;;;0.83;0.77;;;13.10;99.90;;;;;;4972297;28;20441;-70
2022/12/22 12:38:44;;;;;;;0.67;0.50;;;13.40;99.90;;;;;;4975679;28;20447;-74
2022/12/22 12:41:46;;;;;;;0.97;0.80;;;13.60;99.90;;;;;;4974915;28;20424;-75
2022/12/22 12:44:16;;;;;;;1.47;0.63;;;13.70;99.90;;;;;;4953746;28;20417;-74
2022/12/22 12:46:54;;;;;;;1.13;0.70;;;13.90;99.90;;;;;;4962223;28;20783;-72
2022/12/22 12:49:54;;;;;;;0.93;0.93;;;14.00;99.90;;;;;;4976344;28;20487;-73
2022/12/22 12:52:38;;;;;;;1.80;0.70;;;14.00;99.90;;;;;;4956087;28;20502;-75
2022/12/22 12:55:29;;;;;;;1.73;0.70;;;14.00;99.90;;;;;;4967586;28;20447;-74
2022/12/22 12:57:56;;;;;;;0.57;0.50;;;14.00;99.90;;;;;;4956269;28;20408;-73
2022/12/22 13:00:42;;;;;;;0.60;0.60;;;13.90;99.90;;;;;;4957089;28;20980;-73
2022/12/22 13:03:31;;;;;;;0.57;0.50;;;13.90;99.90;;;;;;4958702;28;20761;-72
2022/12/22 13:05:58;;;;;;;1.87;1.17;;;13.90;99.90;;;;;;4958366;28;20451;-72
2022/12/22 13:08:24;;;;;;;0.90;0.83;;;13.90;99.90;;;;;;4967145;28;20767;-71
2022/12/22 13:10:52;;;;;;;0.50;0.50;;;13.90;99.90;;;;;;4968712;28;20429;-71
2022/12/22 13:13:24;;;;;;;1.60;1.00;;;13.90;99.90;;;;;;4970470;28;20607;-69
2022/12/22 13:15:58;;;;;;;0.90;0.70;;;13.90;99.90;;;;;;4965813;28;20775;-72
2022/12/22 13:18:24;;;;;;;3.10;1.00;;;13.90;99.90;;;;;;4966048;28;20418;-74
2022/12/22 13:20:58;;;;;;;6.33;0.83;;;13.90;99.90;;;;;;4971113;28;20427;-69
2022/12/22 13:23:38;;;;;;;0.67;0.50;;;13.80;99.90;;;;;;4972536;28;20168;-76
2022/12/22 13:26:24;;;;;;;1.10;0.70;;;13.80;99.90;;;;;;4970678;28;20509;-78
2022/12/22 13:28:58;;;;;;;0.80;0.63;;;13.70;99.90;;;;;;4977855;28;20746;-75
2022/12/22 13:31:41;;;;;;;0.40;0.40;;;13.60;99.90;;;;;;4974160;28;20942;-77
2022/12/22 13:34:36;;;;;;;1.33;1.23;;;13.50;99.90;;;;;;4966084;28;20442;-75
2022/12/22 13:37:19;;;;;;;1.73;0.70;;;13.50;99.90;;;;;;4964271;28;20505;-75
2022/12/22 13:40:15;;;;;;;1.20;0.60;;;13.40;99.90;;;;;;4959781;28;20467;-75
2022/12/22 13:43:15;;;;;;;1.97;0.90;;;13.50;99.90;;;;;;4961723;28;20419;-74
2022/12/22 13:45:55;;;;;;;0.50;0.50;;;13.40;99.90;;;;;;4954146;28;20448;-71
2022/12/22 13:48:45;;;;;;;1.47;0.83;;;13.40;99.90;;;;;;4955559;28;20426;-73
2022/12/22 13:51:19;;;;;;;1.33;1.10;;;13.30;99.90;;;;;;4955057;29;20856;-74
2022/12/22 13:53:52;;;;;;;0.93;0.83;;;13.30;99.90;;;;;;4973476;28;20454;-73
2022/12/22 13:56:22;;;;;;;1.17;1.07;;;13.40;99.90;;;;;;4972320;28;20416;-72
2022/12/22 13:58:58;;;;;;;2.10;1.53;;;13.40;99.90;;;;;;4974551;28;20542;-72
2022/12/22 14:01:25;;;;;;;1.67;1.20;;;13.40;99.90;;;;;;4973503;28;20432;-71
2022/12/22 14:04:06;;;;;;;0.63;0.60;;;13.40;99.90;;;;;;4974890;28;20432;-71
2022/12/22 14:06:34;;;;;;;0.60;0.60;;;13.30;99.90;;;;;;4974026;28;20446;-74
2022/12/22 14:09:19;;;;;;;1.00;0.70;;;13.30;99.90;;;;;;4974435;28;20769;-72
2022/12/22 14:12:10;;;;;;;1.67;0.90;;;13.20;99.90;;;;;;4974559;28;20435;-74
2022/12/22 14:14:41;;;;;;;0.80;0.47;;;13.20;99.90;;;;;;4956858;28;20451;-72
2022/12/22 14:17:35;;;;;;;0.40;0.40;;;13.10;99.90;;;;;;4955359;28;20518;-71
2022/12/22 14:20:16;;;;;;;1.20;1.00;;;13.10;99.90;;;;;;4954686;28;20821;-74
2022/12/22 14:22:49;;;;;;;0.67;0.67;;;13.10;99.90;;;;;;4954598;28;20965;-73
2022/12/22 14:25:22;;;;;;;1.50;0.80;;;13.00;99.90;;;;;;4955017;28;20449;-74
2022/12/22 14:27:51;;;;;;;0.80;0.50;;;13.00;99.90;;;;;;4954987;28;20407;-74
2022/12/22 14:30:40;;;;;;;0.90;0.70;;;13.00;99.90;;;;;;4967295;28;20425;-72
2022/12/22 14:33:16;;;;;;;2.30;0.63;;;13.00;99.90;;;;;;4970264;28;20513;-71
2022/12/22 14:35:42;;;;;;;0.70;0.70;;;13.00;99.90;;;;;;4974094;28;20434;-68
2022/12/22 14:38:22;;;;;;;2.10;1.07;;;13.00;99.90;;;;;;4957343;28;20539;-73
2022/12/22 14:40:48;;;;;;;1.00;0.70;;;13.10;99.90;;;;;;4953538;28;20194;-70
2022/12/22 14:43:16;;;;;;;1.03;0.60;;;13.10;99.90;;;;;;4954645;28;20403;-74
2022/12/22 14:45:46;;;;;;;3.40;1.33;;;13.10;99.90;;;;;;4955774;28;20806;-71
2022/12/22 14:48:31;;;;;;;1.20;0.90;;;13.10;99.90;;;;;;4958419;28;20442;-75
2022/12/22 14:50:58;;;;;;;7.83;1.80;;;13.10;99.90;;;;;;4958417;28;20758;-70
2022/12/22 14:53:36;;;;;;;0.60;0.60;;;13.10;99.90;;;;;;4957953;28;20419;-72
2022/12/22 14:56:02;;;;;;;3.00;0.60;;;13.10;99.90;;;;;;4958481;28;20786;-72
2022/12/22 14:58:32;;;;;;;3.53;0.97;;;13.10;99.90;;;;;;4958425;28;20498;-70
2022/12/22 15:01:23;;;;;;;3.40;1.30;;;13.10;99.90;;;;;;4958785;28;20182;-73
2022/12/22 15:04:05;;;;;;;1.50;1.40;;;13.00;99.90;;;;;;4958240;28;20531;-73
2022/12/22 15:06:40;;;;;;;1.30;1.03;;;13.00;99.90;;;;;;4957054;28;20426;-70
2022/12/22 15:09:07;;;;;;;1.20;0.70;;;12.90;99.90;;;;;;4973605;28;20419;-71
2022/12/22 15:11:36;;;;;;;3.27;1.00;;;12.90;99.90;;;;;;4959993;28;20422;-71
2022/12/22 15:14:03;;;;;;;2.20;1.17;;;12.80;99.90;;;;;;4959927;28;20901;-70
2022/12/22 15:16:29;;;;;;;2.37;1.10;;;12.80;99.90;;;;;;4973341;28;20514;-70
2022/12/22 15:18:55;;;;;;;3.13;1.40;;;12.70;99.90;;;;;;4957832;28;20460;-71
2022/12/22 15:21:21;;;;;;;1.03;0.93;;;12.60;99.90;;;;;;4958461;28;20486;-72
2022/12/22 15:23:47;;;;;;;1.27;1.03;;;12.60;99.90;;;;;;4974888;28;21015;-72
2022/12/22 15:26:15;;;;;;;1.50;1.10;;;12.50;99.90;;;;;;4977354;28;20495;-71
2022/12/22 15:28:41;;;;;;;2.20;0.90;;;12.40;99.90;;;;;;4975006;28;20414;-73
2022/12/22 15:31:14;;;;;;;1.17;0.80;;;12.40;99.90;;;;;;4973830;28;20429;-72
2022/12/22 15:33:41;;;;;;;1.63;0.87;;;12.30;99.90;;;;;;4957159;28;20179;-73
2022/12/22 15:36:11;;;;;;;1.53;1.00;;;12.30;99.90;;;;;;4957675;28;20410;-75
2022/12/22 15:38:37;;;;;;;0.80;0.80;;;12.20;99.90;;;;;;4957647;28;20415;-74
2022/12/22 15:41:03;;;;;;;2.30;1.40;;;12.20;99.90;;;;;;4958185;28;20789;-75
2022/12/22 15:43:30;;;;;;;0.80;0.67;;;12.10;99.90;;;;;;4957555;28;20419;-73
2022/12/22 15:45:56;;;;;;;0.90;0.63;;;12.10;99.90;;;;;;4957736;28;20171;-71
2022/12/22 15:48:27;;;;;;;2.00;1.33;;;12.10;99.90;;;;;;4959427;28;20422;-73
2022/12/22 15:50:54;;;;;;;0.60;0.60;;;12.00;99.90;;;;;;4977016;28;20775;-74
2022/12/22 15:53:20;;;;;;;2.05;0.73;;;12.00;99.90;;;;;;4976570;28;20411;-72
2022/12/22 15:55:49;;;;;;;3.13;1.00;;;12.00;99.90;;;;;;4976768;28;20696;-71
2022/12/22 15:58:18;;;;;;;1.50;0.88;;;11.90;99.90;;;;;;4976594;28;20406;-68
2022/12/22 16:00:44;;;;;;;1.50;1.10;;;11.90;99.90;;;;;;4965615;28;20213;-67
2022/12/22 16:03:10;;;;;;;4.40;0.80;;;11.80;99.90;;;;;;4970500;28;20416;-68
2022/12/22 16:05:37;;;;;;;1.17;0.90;;;11.80;99.90;;;;;;4976445;28;20453;-68
2022/12/22 16:08:05;;;;;;;1.27;1.17;;;11.80;99.90;;;;;;4976555;28;20407;-68
2022/12/22 16:10:33;;;;;;;2.43;1.47;;;11.70;99.90;;;;;;4976503;28;20204;-69
2022/12/22 16:13:02;;;;;;;1.80;1.50;;;11.70;99.90;;;;;;4976028;28;20419;-69
2022/12/22 16:15:31;;;;;;;3.30;0.80;;;11.60;99.90;;;;;;4962049;28;20207;-70
2022/12/22 16:17:57;;;;;;;1.50;1.27;;;11.60;99.90;;;;;;4957299;28;20760;-69
2022/12/22 16:20:25;;;;;;;2.13;1.00;;;11.60;99.90;;;;;;4956803;28;20206;-68
2022/12/22 16:22:52;;;;;;;2.50;1.20;;;11.50;99.90;;;;;;4985246;28;20751;-71
2022/12/22 16:25:21;;;;;;;2.47;1.17;;;11.50;99.90;;;;;;4975892;28;20189;-70
2022/12/22 16:27:48;;;;;;;2.08;1.88;;;11.50;99.90;;;;;;4980224;28;20471;-69
2022/12/22 16:30:24;;;;;;;2.78;1.10;;;11.40;99.90;;;;;;4972651;28;20182;-69
2022/12/22 16:32:50;;;;;;;4.97;2.80;;;11.40;99.90;;;;;;4984466;28;20274;-70
2022/12/22 16:35:21;;;;;;;2.10;1.97;;;11.30;99.90;;;;;;4981131;28;20209;-69
2022/12/22 16:37:47;;;;;;;3.53;1.77;;;11.30;99.90;;;;;;4974521;28;20770;-69
2022/12/22 16:40:14;;;;;;;2.70;1.30;;;11.30;99.90;;;;;;4975761;28;20200;-70
2022/12/22 16:42:43;;;;;;;3.42;2.88;;;11.30;99.90;;;;;;4983482;28;20212;-72
2022/12/22 16:45:21;;;;;;;1.85;1.02;;;11.20;99.90;;;;;;4982810;28;20622;-70
2022/12/22 16:47:50;;;;;;;3.58;1.30;;;11.20;99.90;;;;;;4995304;28;20171;-72
2022/12/22 16:50:18;;;;;;;4.53;1.30;;;11.20;99.90;;;;;;4995015;28;20172;-69
2022/12/22 16:52:44;;;;;;;2.30;1.63;;;11.10;99.90;;;;;;4994429;28;20183;-71
2022/12/22 16:55:14;;;;;;;3.20;1.37;;;11.10;99.90;;;;;;4995095;28;20277;-74
2022/12/22 16:57:40;;;;;;;2.30;1.33;;;11.10;99.90;;;;;;4995085;28;20426;-71
2022/12/22 17:00:06;;;;;;;1.80;1.67;;;11.10;99.90;;;;;;4959697;28;20248;-71
2022/12/22 17:02:33;;;;;;;3.88;0.95;;;11.00;99.90;;;;;;4957142;28;20183;-72
2022/12/22 17:05:00;;;;;;;0.90;0.90;;;11.00;99.90;;;;;;4994663;28;20188;-68
2022/12/22 17:07:29;;;;;;;2.65;0.95;;;10.90;99.90;;;;;;4994809;28;20216;-72
2022/12/22 17:10:03;;;;;;;3.80;1.80;;;10.80;99.90;;;;;;4994430;28;20179;-70
2022/12/22 17:12:33;;;;;;;2.08;1.90;;;10.80;99.90;;;;;;4994966;28;20202;-68
2022/12/22 17:15:00;;;;;;;4.55;1.60;;;10.80;99.90;;;;;;4957157;28;20567;-67
2022/12/22 17:17:26;;;;;;;4.07;1.70;;;10.80;99.90;;;;;;4966581;28;20559;-70
2022/12/22 17:19:52;;;;;;;3.33;1.63;;;10.70;99.90;;;;;;4974783;28;20681;-68
2022/12/22 17:22:24;;;;;;;2.17;1.50;;;10.70;99.90;;;;;;4975185;28;20260;-69
2022/12/22 17:24:51;;;;;;;5.40;1.63;;;10.70;99.90;;;;;;4974725;28;20207;-70
2022/12/22 17:27:23;;;;;;;3.28;2.22;;;10.80;99.90;;;;;;4982704;28;20180;-69
2022/12/22 17:29:49;;;;;;;3.50;3.20;;;10.80;99.90;;;;;;4967746;28;20527;-71
2022/12/22 17:32:17;;;;;;;3.20;1.33;;;10.80;99.90;;;;;;4975855;28;20179;-71
2022/12/22 17:34:43;;;;;;;3.63;1.70;;;10.80;99.90;;;;;;4961206;28;20205;-69
2022/12/22 17:37:14;;;;;;;3.50;1.80;;;10.80;99.90;;;;;;4990256;28;20642;-71
2022/12/22 17:39:41;;;;;;;4.53;1.83;;;10.80;99.90;;;;;;4984408;28;20211;-70
2022/12/22 17:42:25;;;;;;;7.03;2.00;;;10.90;99.90;;;;;;4983290;28;20173;-69
2022/12/22 17:44:50;;;;;;;1.60;1.50;;;10.90;99.90;;;;;;4955289;28;20200;-70
2022/12/22 17:47:19;;;;;;;2.30;1.77;;;10.90;99.90;;;;;;4960431;28;20264;-71
2022/12/22 17:49:45;;;;;;;10.15;2.20;;;10.90;99.90;;;;;;4972681;28;20677;-71
2022/12/22 17:52:19;;;;;;;4.47;1.85;;;10.90;99.90;;;;;;4974714;28;20173;-71
2022/12/22 17:54:46;;;;;;;2.05;1.85;;;10.90;99.90;;;;;;4973971;28;20267;-71
2022/12/22 17:57:19;;;;;;;2.20;2.00;;;10.90;99.90;;;;;;4973884;28;20489;-69
2022/12/22 17:59:46;;;;;;;3.00;1.67;;;10.90;99.90;;;;;;4975112;28;20191;-69
2022/12/22 18:02:19;;;;;;;1.40;1.30;;;10.90;99.90;;;;;;4975009;28;20172;-69
2022/12/22 18:04:45;;;;;;;6.22;3.15;;;11.00;99.90;;;;;;4973749;28;20279;-70
2022/12/22 18:07:12;;;;;;;6.38;1.98;;;11.00;99.90;;;;;;4974556;28;20181;-69
2022/12/22 18:09:38;;;;;;;8.48;1.65;;;11.00;99.90;;;;;;4974575;28;20223;-70
2022/12/22 18:12:20;;;;;;;6.70;2.00;;;11.00;99.90;;;;;;4974409;28;20201;-70
2022/12/22 18:14:46;;;;;;;4.82;2.88;;;11.00;99.90;;;;;;4974154;28;20192;-68
2022/12/22 18:17:27;;;;;;;3.13;1.52;;;11.10;99.90;;;;;;4979867;28;20231;-70